sensor_id;sensor_type;location;lat;lon;timestamp;pressure;altitude;pressure_sealevel;temperature;humidity
21555;BME280;10938;44.794;-0.676;2022-12-07T00:02:14;101202.44;;;7.82;100.00
21555;BME280;10938;44.794;-0.676;2022-12-07T00:04:40;101197.25;;;7.82;100.00
21555;BME280;10938;44.794;-0.676;2022-12-07T00:07:05;101196.72;;;7.92;100.00
21555;BME280;10938;44.794;-0.676;2022-12-07T00:09:30;101206.94;;;7.61;100.00
21555;BME280;10938;44.794;-0.676;2022-12-07T00:11:56;101204.34;;;7.61;100.00
21555;BME280;10938;44.794;-0.676;2022-12-07T00:14:21;101206.31;;;7.68;100.00
21555;BME280;10938;44.794;-0.676;2022-12-07T00:16:49;101219.84;;;7.33;100.00
21555;BME280;10938;44.794;-0.676;2022-12-07T00:19:15;101206.06;;;7.34;100.00
21555;BME280;10938;44.794;-0.676;2022-12-07T00:21:41;101210.41;;;7.60;100.00
21555;BME280;10938;44.794;-0.676;2022-12-07T00:24:07;101206.47;;;7.46;100.00
21555;BME280;10938;44.794;-0.676;2022-12-07T00:26:35;101205.09;;;7.57;100.00
21555;BME280;10938;44.794;-0.676;2022-12-07T00:29:05;101208.41;;;7.53;100.00
21555;BME280;10938;44.794;-0.676;2022-12-07T00:31:33;101204.31;;;7.34;100.00
21555;BME280;10938;44.794;-0.676;2022-12-07T00:34:00;101200.34;;;7.44;100.00
21555;BME280;10938;44.794;-0.676;2022-12-07T00:36:26;101201.22;;;7.19;100.00
21555;BME280;10938;44.794;-0.676;2022-12-07T00:38:52;101198.84;;;7.25;100.00
21555;BME280;10938;44.794;-0.676;2022-12-07T00:41:23;101198.63;;;7.19;100.00
21555;BME280;10938;44.794;-0.676;2022-12-07T00:43:49;101191.41;;;7.36;100.00
21555;BME280;10938;44.794;-0.676;2022-12-07T00:46:16;101194.00;;;7.36;100.00
21555;BME280;10938;44.794;-0.676;2022-12-07T00:48:41;101187.88;;;7.08;100.00
21555;BME280;10938;44.794;-0.676;2022-12-07T00:51:07;101184.16;;;7.25;100.00
21555;BME280;10938;44.794;-0.676;2022-12-07T00:53:35;101192.38;;;7.14;100.00
21555;BME280;10938;44.794;-0.676;2022-12-07T00:56:15;101184.56;;;7.12;100.00
21555;BME280;10938;44.794;-0.676;2022-12-07T00:58:41;101189.19;;;6.96;100.00
21555;BME280;10938;44.794;-0.676;2022-12-07T01:01:08;101192.97;;;7.05;100.00
21555;BME280;10938;44.794;-0.676;2022-12-07T01:03:33;101187.47;;;6.96;100.00
21555;BME280;10938;44.794;-0.676;2022-12-07T01:05:59;101188.38;;;6.97;100.00
21555;BME280;10938;44.794;-0.676;2022-12-07T01:08:26;101182.41;;;6.99;100.00
21555;BME280;10938;44.794;-0.676;2022-12-07T01:11:04;101180.50;;;6.95;100.00
21555;BME280;10938;44.794;-0.676;2022-12-07T01:13:31;101178.31;;;6.82;100.00
21555;BME280;10938;44.794;-0.676;2022-12-07T01:15:58;101177.91;;;6.70;100.00
21555;BME280;10938;44.794;-0.676;2022-12-07T01:18:28;101167.09;;;6.58;100.00
21555;BME280;10938;44.794;-0.676;2022-12-07T01:23:30;101183.72;;;6.41;100.00
21555;BME280;10938;44.794;-0.676;2022-12-07T01:25:57;101175.81;;;6.60;100.00
21555;BME280;10938;44.794;-0.676;2022-12-07T01:28:23;101179.16;;;6.34;100.00
21555;BME280;10938;44.794;-0.676;2022-12-07T01:33:21;101177.28;;;6.30;100.00
21555;BME280;10938;44.794;-0.676;2022-12-07T01:35:46;101171.81;;;6.46;100.00
21555;BME280;10938;44.794;-0.676;2022-12-07T01:38:12;101181.19;;;6.42;100.00
21555;BME280;10938;44.794;-0.676;2022-12-07T01:40:37;101170.91;;;6.44;100.00
21555;BME280;10938;44.794;-0.676;2022-12-07T01:43:09;101174.75;;;6.09;100.00
21555;BME280;10938;44.794;-0.676;2022-12-07T01:45:40;101174.84;;;6.34;100.00
21555;BME280;10938;44.794;-0.676;2022-12-07T01:48:14;101169.97;;;5.97;100.00
21555;BME280;10938;44.794;-0.676;2022-12-07T01:50:45;101180.81;;;6.09;100.00
21555;BME280;10938;44.794;-0.676;2022-12-07T01:53:14;101177.94;;;6.02;100.00
21555;BME280;10938;44.794;-0.676;2022-12-07T01:55:42;101181.06;;;5.52;100.00
21555;BME280;10938;44.794;-0.676;2022-12-07T01:58:09;101187.34;;;5.57;100.00
21555;BME280;10938;44.794;-0.676;2022-12-07T02:04:40;101196.66;;;5.33;100.00
21555;BME280;10938;44.794;-0.676;2022-12-07T02:08:36;101193.06;;;5.29;100.00
21555;BME280;10938;44.794;-0.676;2022-12-07T02:11:55;101197.91;;;5.22;100.00
21555;BME280;10938;44.794;-0.676;2022-12-07T02:25:12;101223.41;;;4.93;100.00
21555;BME280;10938;44.794;-0.676;2022-12-07T02:31:21;101211.00;;;5.05;100.00
21555;BME280;10938;44.794;-0.676;2022-12-07T02:37:58;101208.97;;;4.98;100.00
21555;BME280;10938;44.794;-0.676;2022-12-07T02:41:55;101214.81;;;4.94;100.00
21555;BME280;10938;44.794;-0.676;2022-12-07T02:45:49;101217.06;;;5.06;100.00
21555;BME280;10938;44.794;-0.676;2022-12-07T02:49:08;101218.41;;;4.98;100.00
21555;BME280;10938;44.794;-0.676;2022-12-07T02:51:56;101218.31;;;5.15;100.00
21555;BME280;10938;44.794;-0.676;2022-12-07T02:55:08;101223.44;;;5.35;100.00
21555;BME280;10938;44.794;-0.676;2022-12-07T02:57:45;101224.75;;;4.85;100.00
21555;BME280;10938;44.794;-0.676;2022-12-07T03:04:27;101218.84;;;4.68;100.00
21555;BME280;10938;44.794;-0.676;2022-12-07T03:07:02;101216.88;;;4.63;100.00
21555;BME280;10938;44.794;-0.676;2022-12-07T03:12:19;101216.88;;;4.63;100.00
21555;BME280;10938;44.794;-0.676;2022-12-07T03:14:52;101217.56;;;4.40;100.00
21555;BME280;10938;44.794;-0.676;2022-12-07T03:17:23;101219.75;;;4.13;100.00
21555;BME280;10938;44.794;-0.676;2022-12-07T03:19:51;101214.88;;;4.38;100.00
21555;BME280;10938;44.794;-0.676;2022-12-07T03:22:21;101210.22;;;4.49;100.00
21555;BME280;10938;44.794;-0.676;2022-12-07T03:24:52;101206.53;;;4.44;100.00
21555;BME280;10938;44.794;-0.676;2022-12-07T03:27:26;101206.25;;;4.38;100.00
21555;BME280;10938;44.794;-0.676;2022-12-07T03:30:07;101205.81;;;4.09;100.00
21555;BME280;10938;44.794;-0.676;2022-12-07T03:32:44;101195.88;;;3.99;100.00
21555;BME280;10938;44.794;-0.676;2022-12-07T03:35:26;101193.34;;;4.01;100.00
21555;BME280;10938;44.794;-0.676;2022-12-07T03:38:24;101198.09;;;4.09;100.00
21555;BME280;10938;44.794;-0.676;2022-12-07T03:41:08;101200.19;;;4.37;100.00
21555;BME280;10938;44.794;-0.676;2022-12-07T03:43:36;101193.28;;;4.75;100.00
21555;BME280;10938;44.794;-0.676;2022-12-07T03:46:15;101195.25;;;4.61;100.00
21555;BME280;10938;44.794;-0.676;2022-12-07T03:51:50;101200.28;;;4.58;100.00
21555;BME280;10938;44.794;-0.676;2022-12-07T03:54:40;101200.50;;;4.62;100.00
21555;BME280;10938;44.794;-0.676;2022-12-07T03:57:08;101205.53;;;4.79;100.00
21555;BME280;10938;44.794;-0.676;2022-12-07T03:59:39;101202.59;;;4.71;100.00
21555;BME280;10938;44.794;-0.676;2022-12-07T04:02:12;101205.09;;;4.50;100.00
21555;BME280;10938;44.794;-0.676;2022-12-07T04:04:41;101201.47;;;4.08;100.00
21555;BME280;10938;44.794;-0.676;2022-12-07T04:07:12;101202.97;;;4.40;100.00
21555;BME280;10938;44.794;-0.676;2022-12-07T04:09:38;101197.03;;;4.62;100.00
21555;BME280;10938;44.794;-0.676;2022-12-07T04:12:05;101196.09;;;4.60;100.00
21555;BME280;10938;44.794;-0.676;2022-12-07T04:14:31;101200.69;;;4.67;100.00
21555;BME280;10938;44.794;-0.676;2022-12-07T04:16:59;101200.09;;;4.53;100.00
21555;BME280;10938;44.794;-0.676;2022-12-07T04:19:27;101207.22;;;4.40;100.00
21555;BME280;10938;44.794;-0.676;2022-12-07T04:21:54;101196.81;;;4.38;100.00
21555;BME280;10938;44.794;-0.676;2022-12-07T04:24:21;101195.94;;;4.38;100.00
21555;BME280;10938;44.794;-0.676;2022-12-07T04:26:47;101202.06;;;4.59;100.00
21555;BME280;10938;44.794;-0.676;2022-12-07T04:29:14;101186.59;;;4.40;100.00
21555;BME280;10938;44.794;-0.676;2022-12-07T04:31:40;101187.59;;;4.43;100.00
21555;BME280;10938;44.794;-0.676;2022-12-07T04:34:08;101185.88;;;4.44;100.00
21555;BME280;10938;44.794;-0.676;2022-12-07T04:36:34;101185.47;;;4.54;100.00
21555;BME280;10938;44.794;-0.676;2022-12-07T04:39:00;101181.13;;;4.72;100.00
21555;BME280;10938;44.794;-0.676;2022-12-07T04:41:26;101182.63;;;4.86;100.00
21555;BME280;10938;44.794;-0.676;2022-12-07T04:44:01;101187.66;;;4.83;100.00
21555;BME280;10938;44.794;-0.676;2022-12-07T04:46:29;101188.97;;;4.94;100.00
21555;BME280;10938;44.794;-0.676;2022-12-07T04:48:55;101183.63;;;4.90;100.00
21555;BME280;10938;44.794;-0.676;2022-12-07T04:51:24;101188.53;;;4.45;100.00
21555;BME280;10938;44.794;-0.676;2022-12-07T04:53:51;101181.75;;;4.10;100.00
21555;BME280;10938;44.794;-0.676;2022-12-07T04:56:17;101197.34;;;4.12;100.00
21555;BME280;10938;44.794;-0.676;2022-12-07T04:58:45;101196.41;;;4.29;100.00
21555;BME280;10938;44.794;-0.676;2022-12-07T05:01:11;101193.50;;;4.41;100.00
21555;BME280;10938;44.794;-0.676;2022-12-07T05:03:38;101192.41;;;4.55;100.00
21555;BME280;10938;44.794;-0.676;2022-12-07T05:06:04;101192.13;;;4.68;100.00
21555;BME280;10938;44.794;-0.676;2022-12-07T05:08:34;101195.66;;;4.51;100.00
21555;BME280;10938;44.794;-0.676;2022-12-07T05:11:02;101186.97;;;4.49;100.00
21555;BME280;10938;44.794;-0.676;2022-12-07T05:13:31;101185.28;;;4.49;100.00
21555;BME280;10938;44.794;-0.676;2022-12-07T05:15:57;101179.75;;;4.61;100.00
21555;BME280;10938;44.794;-0.676;2022-12-07T05:18:23;101174.13;;;4.50;100.00
21555;BME280;10938;44.794;-0.676;2022-12-07T05:20:50;101178.56;;;4.72;100.00
21555;BME280;10938;44.794;-0.676;2022-12-07T05:23:17;101165.84;;;4.77;100.00
21555;BME280;10938;44.794;-0.676;2022-12-07T05:25:43;101162.34;;;4.95;100.00
21555;BME280;10938;44.794;-0.676;2022-12-07T05:28:09;101165.84;;;4.77;100.00
21555;BME280;10938;44.794;-0.676;2022-12-07T05:30:35;101161.75;;;4.82;100.00
21555;BME280;10938;44.794;-0.676;2022-12-07T05:33:00;101174.19;;;5.11;100.00
21555;BME280;10938;44.794;-0.676;2022-12-07T05:35:26;101168.75;;;4.84;100.00
21555;BME280;10938;44.794;-0.676;2022-12-07T05:37:53;101163.47;;;5.02;100.00
21555;BME280;10938;44.794;-0.676;2022-12-07T05:40:18;101163.69;;;5.06;100.00
21555;BME280;10938;44.794;-0.676;2022-12-07T05:42:44;101153.94;;;5.20;100.00
21555;BME280;10938;44.794;-0.676;2022-12-07T05:45:11;101151.63;;;5.28;100.00
21555;BME280;10938;44.794;-0.676;2022-12-07T05:47:37;101153.03;;;5.40;100.00
21555;BME280;10938;44.794;-0.676;2022-12-07T05:50:04;101152.38;;;5.46;100.00
21555;BME280;10938;44.794;-0.676;2022-12-07T05:52:30;101151.44;;;5.44;100.00
21555;BME280;10938;44.794;-0.676;2022-12-07T05:54:56;101156.31;;;5.57;100.00
21555;BME280;10938;44.794;-0.676;2022-12-07T05:57:21;101147.19;;;5.24;100.00
21555;BME280;10938;44.794;-0.676;2022-12-07T05:59:48;101154.78;;;5.00;100.00
21555;BME280;10938;44.794;-0.676;2022-12-07T06:02:15;101153.09;;;5.21;100.00
21555;BME280;10938;44.794;-0.676;2022-12-07T06:04:43;101157.97;;;5.13;100.00
21555;BME280;10938;44.794;-0.676;2022-12-07T06:07:13;101152.25;;;5.01;100.00
21555;BME280;10938;44.794;-0.676;2022-12-07T06:09:40;101161.59;;;5.18;100.00
21555;BME280;10938;44.794;-0.676;2022-12-07T06:12:10;101154.66;;;5.17;100.00
21555;BME280;10938;44.794;-0.676;2022-12-07T06:14:55;101159.81;;;5.17;100.00
21555;BME280;10938;44.794;-0.676;2022-12-07T06:17:21;101165.28;;;5.24;100.00
21555;BME280;10938;44.794;-0.676;2022-12-07T06:19:47;101165.53;;;5.30;100.00
21555;BME280;10938;44.794;-0.676;2022-12-07T06:22:14;101177.66;;;4.72;100.00
21555;BME280;10938;44.794;-0.676;2022-12-07T06:24:43;101183.44;;;4.66;100.00
21555;BME280;10938;44.794;-0.676;2022-12-07T06:27:13;101187.53;;;4.80;100.00
21555;BME280;10938;44.794;-0.676;2022-12-07T06:29:39;101192.75;;;4.82;100.00
21555;BME280;10938;44.794;-0.676;2022-12-07T06:32:05;101187.63;;;5.02;100.00
21555;BME280;10938;44.794;-0.676;2022-12-07T06:34:31;101190.06;;;4.99;100.00
21555;BME280;10938;44.794;-0.676;2022-12-07T06:36:56;101192.69;;;4.80;100.00
21555;BME280;10938;44.794;-0.676;2022-12-07T06:39:25;101181.47;;;5.00;100.00
21555;BME280;10938;44.794;-0.676;2022-12-07T06:41:51;101182.03;;;5.12;100.00
21555;BME280;10938;44.794;-0.676;2022-12-07T06:44:18;101173.06;;;5.25;100.00
21555;BME280;10938;44.794;-0.676;2022-12-07T06:46:46;101174.31;;;5.35;100.00
21555;BME280;10938;44.794;-0.676;2022-12-07T06:49:13;101171.28;;;5.65;100.00
21555;BME280;10938;44.794;-0.676;2022-12-07T06:51:40;101182.88;;;5.54;100.00
21555;BME280;10938;44.794;-0.676;2022-12-07T06:54:08;101188.72;;;5.49;100.00
21555;BME280;10938;44.794;-0.676;2022-12-07T06:56:33;101191.84;;;5.62;100.00
21555;BME280;10938;44.794;-0.676;2022-12-07T06:59:01;101175.34;;;5.59;100.00
21555;BME280;10938;44.794;-0.676;2022-12-07T07:01:27;101177.75;;;5.34;100.00
21555;BME280;10938;44.794;-0.676;2022-12-07T07:03:53;101179.50;;;5.55;100.00
21555;BME280;10938;44.794;-0.676;2022-12-07T07:06:19;101174.69;;;5.64;100.00
21555;BME280;10938;44.794;-0.676;2022-12-07T07:08:53;101170.94;;;5.36;100.00
21555;BME280;10938;44.794;-0.676;2022-12-07T07:11:24;101163.66;;;5.48;100.00
21555;BME280;10938;44.794;-0.676;2022-12-07T07:13:53;101165.72;;;5.13;100.00
21555;BME280;10938;44.794;-0.676;2022-12-07T07:16:22;101162.53;;;5.20;100.00
21555;BME280;10938;44.794;-0.676;2022-12-07T07:18:48;101168.91;;;5.29;100.00
21555;BME280;10938;44.794;-0.676;2022-12-07T07:21:13;101173.59;;;5.16;100.00
21555;BME280;10938;44.794;-0.676;2022-12-07T07:23:39;101169.00;;;5.30;100.00
21555;BME280;10938;44.794;-0.676;2022-12-07T07:26:04;101171.06;;;5.39;100.00
21555;BME280;10938;44.794;-0.676;2022-12-07T07:28:30;101173.97;;;5.26;100.00
21555;BME280;10938;44.794;-0.676;2022-12-07T07:30:55;101168.78;;;5.26;100.00
21555;BME280;10938;44.794;-0.676;2022-12-07T07:33:21;101176.75;;;5.30;100.00
21555;BME280;10938;44.794;-0.676;2022-12-07T07:35:46;101170.56;;;5.27;100.00
21555;BME280;10938;44.794;-0.676;2022-12-07T07:38:18;101171.69;;;5.12;100.00
21555;BME280;10938;44.794;-0.676;2022-12-07T07:40:44;101172.94;;;5.43;100.00
21555;BME280;10938;44.794;-0.676;2022-12-07T07:43:10;101168.25;;;5.55;100.00
21555;BME280;10938;44.794;-0.676;2022-12-07T07:45:35;101170.56;;;5.27;100.00
21555;BME280;10938;44.794;-0.676;2022-12-07T07:48:01;101169.16;;;5.14;100.00
21555;BME280;10938;44.794;-0.676;2022-12-07T07:50:26;101171.13;;;5.19;100.00
21555;BME280;10938;44.794;-0.676;2022-12-07T07:52:53;101166.94;;;5.02;100.00
21555;BME280;10938;44.794;-0.676;2022-12-07T07:55:19;101173.72;;;5.19;100.00
21555;BME280;10938;44.794;-0.676;2022-12-07T07:57:45;101172.00;;;5.41;100.00
21555;BME280;10938;44.794;-0.676;2022-12-07T08:00:13;101165.25;;;5.44;100.00
21555;BME280;10938;44.794;-0.676;2022-12-07T08:02:42;101172.63;;;5.56;100.00
21555;BME280;10938;44.794;-0.676;2022-12-07T08:05:08;101172.38;;;5.50;100.00
21555;BME280;10938;44.794;-0.676;2022-12-07T08:07:35;101180.44;;;5.57;100.00
21555;BME280;10938;44.794;-0.676;2022-12-07T08:10:01;101178.13;;;5.63;100.00
21555;BME280;10938;44.794;-0.676;2022-12-07T08:12:27;101185.31;;;5.50;100.00
21555;BME280;10938;44.794;-0.676;2022-12-07T08:14:53;101181.63;;;5.65;100.00
21555;BME280;10938;44.794;-0.676;2022-12-07T08:17:20;101184.28;;;5.67;100.00
21555;BME280;10938;44.794;-0.676;2022-12-07T08:19:46;101192.56;;;5.81;100.00
21555;BME280;10938;44.794;-0.676;2022-12-07T08:22:11;101185.16;;;6.10;100.00
21555;BME280;10938;44.794;-0.676;2022-12-07T08:24:38;101188.47;;;5.43;100.00
21555;BME280;10938;44.794;-0.676;2022-12-07T08:27:05;101191.78;;;5.61;100.00
21555;BME280;10938;44.794;-0.676;2022-12-07T08:29:30;101188.59;;;5.46;100.00
21555;BME280;10938;44.794;-0.676;2022-12-07T08:31:56;101196.50;;;5.09;100.00
21555;BME280;10938;44.794;-0.676;2022-12-07T08:34:21;101188.72;;;5.28;100.00
21555;BME280;10938;44.794;-0.676;2022-12-07T08:36:47;101185.78;;;5.20;100.00
21555;BME280;10938;44.794;-0.676;2022-12-07T08:39:13;101188.25;;;5.59;100.00
21555;BME280;10938;44.794;-0.676;2022-12-07T08:41:38;101185.34;;;5.72;100.00
21555;BME280;10938;44.794;-0.676;2022-12-07T08:54:15;101212.84;;;5.29;100.00
21555;BME280;10938;44.794;-0.676;2022-12-07T08:56:42;101215.09;;;5.40;100.00
21555;BME280;10938;44.794;-0.676;2022-12-07T08:59:08;101225.69;;;4.87;100.00
21555;BME280;10938;44.794;-0.676;2022-12-07T09:01:34;101218.88;;;5.08;100.00
21555;BME280;10938;44.794;-0.676;2022-12-07T09:03:59;101231.44;;;5.41;100.00
21555;BME280;10938;44.794;-0.676;2022-12-07T09:06:25;101233.31;;;5.24;100.00
21555;BME280;10938;44.794;-0.676;2022-12-07T09:08:54;101238.50;;;5.24;100.00
21555;BME280;10938;44.794;-0.676;2022-12-07T09:11:20;101243.00;;;5.49;100.00
21555;BME280;10938;44.794;-0.676;2022-12-07T09:13:46;101238.31;;;5.19;100.00
21555;BME280;10938;44.794;-0.676;2022-12-07T09:16:12;101239.16;;;5.39;100.00
21555;BME280;10938;44.794;-0.676;2022-12-07T09:18:37;101251.25;;;5.61;100.00
21555;BME280;10938;44.794;-0.676;2022-12-07T09:21:04;101240.16;;;5.43;100.00
21555;BME280;10938;44.794;-0.676;2022-12-07T09:23:29;101247.50;;;5.53;100.00
21555;BME280;10938;44.794;-0.676;2022-12-07T09:25:59;101248.09;;;5.27;100.00
21555;BME280;10938;44.794;-0.676;2022-12-07T09:28:25;101253.81;;;5.00;100.00
21555;BME280;10938;44.794;-0.676;2022-12-07T09:30:50;101252.53;;;4.91;100.00
21555;BME280;10938;44.794;-0.676;2022-12-07T09:33:16;101254.66;;;5.39;100.00
21555;BME280;10938;44.794;-0.676;2022-12-07T09:35:47;101255.50;;;5.59;100.00
21555;BME280;10938;44.794;-0.676;2022-12-07T09:38:14;101243.97;;;5.92;100.00
21555;BME280;10938;44.794;-0.676;2022-12-07T09:40:40;101252.19;;;6.04;100.00
21555;BME280;10938;44.794;-0.676;2022-12-07T09:43:18;101250.75;;;6.11;100.00
21555;BME280;10938;44.794;-0.676;2022-12-07T09:45:46;101238.16;;;6.42;100.00
21555;BME280;10938;44.794;-0.676;2022-12-07T09:48:18;101243.88;;;6.80;100.00
21555;BME280;10938;44.794;-0.676;2022-12-07T09:50:45;101230.81;;;7.51;100.00
21555;BME280;10938;44.794;-0.676;2022-12-07T09:53:25;101233.19;;;7.43;100.00
21555;BME280;10938;44.794;-0.676;2022-12-07T09:55:52;101230.03;;;7.28;100.00
21555;BME280;10938;44.794;-0.676;2022-12-07T09:58:23;101223.69;;;7.44;100.00
21555;BME280;10938;44.794;-0.676;2022-12-07T10:01:08;101229.44;;;7.35;100.00
21555;BME280;10938;44.794;-0.676;2022-12-07T10:03:36;101239.69;;;7.32;100.00
21555;BME280;10938;44.794;-0.676;2022-12-07T10:06:04;101227.94;;;7.16;100.00
21555;BME280;10938;44.794;-0.676;2022-12-07T10:08:30;101232.03;;;7.35;100.00
21555;BME280;10938;44.794;-0.676;2022-12-07T10:11:00;101229.47;;;7.11;100.00
21555;BME280;10938;44.794;-0.676;2022-12-07T10:13:40;101241.00;;;7.19;100.00
21555;BME280;10938;44.794;-0.676;2022-12-07T10:16:39;101222.22;;;7.52;100.00
21555;BME280;10938;44.794;-0.676;2022-12-07T10:19:27;101227.69;;;7.61;100.00
21555;BME280;10938;44.794;-0.676;2022-12-07T10:22:10;101229.44;;;7.60;100.00
21555;BME280;10938;44.794;-0.676;2022-12-07T10:24:37;101225.38;;;7.68;100.00
21555;BME280;10938;44.794;-0.676;2022-12-07T10:27:26;101217.00;;;7.77;100.00
21555;BME280;10938;44.794;-0.676;2022-12-07T10:29:54;101214.91;;;6.91;100.00
21555;BME280;10938;44.794;-0.676;2022-12-07T10:34:45;101200.75;;;7.56;100.00
21555;BME280;10938;44.794;-0.676;2022-12-07T10:39:56;101190.78;;;7.96;100.00
21555;BME280;10938;44.794;-0.676;2022-12-07T10:42:28;101180.56;;;7.74;100.00
21555;BME280;10938;44.794;-0.676;2022-12-07T10:45:27;101183.22;;;7.75;100.00
21555;BME280;10938;44.794;-0.676;2022-12-07T11:01:52;101170.28;;;8.05;100.00
21555;BME280;10938;44.794;-0.676;2022-12-07T11:10:04;101159.63;;;8.54;100.00
21555;BME280;10938;44.794;-0.676;2022-12-07T11:18:14;101135.69;;;8.33;100.00
21555;BME280;10938;44.794;-0.676;2022-12-07T11:34:18;101122.34;;;8.22;100.00
21555;BME280;10938;44.794;-0.676;2022-12-07T11:36:52;101119.63;;;8.48;100.00
21555;BME280;10938;44.794;-0.676;2022-12-07T11:39:26;101119.81;;;8.54;100.00
21555;BME280;10938;44.794;-0.676;2022-12-07T11:42:01;101113.56;;;8.47;100.00
21555;BME280;10938;44.794;-0.676;2022-12-07T11:47:13;101115.78;;;8.34;100.00
21555;BME280;10938;44.794;-0.676;2022-12-07T11:55:23;101106.44;;;8.12;100.00
21555;BME280;10938;44.794;-0.676;2022-12-07T11:58:03;101096.38;;;8.22;100.00
21555;BME280;10938;44.794;-0.676;2022-12-07T12:00:36;101093.16;;;8.30;100.00
21555;BME280;10938;44.794;-0.676;2022-12-07T12:03:13;101083.44;;;8.54;100.00
21555;BME280;10938;44.794;-0.676;2022-12-07T12:05:41;101088.03;;;8.64;100.00
21555;BME280;10938;44.794;-0.676;2022-12-07T12:08:45;101085.97;;;8.52;100.00
21555;BME280;10938;44.794;-0.676;2022-12-07T12:22:12;101071.75;;;9.78;100.00
21555;BME280;10938;44.794;-0.676;2022-12-07T12:24:41;101066.81;;;9.92;100.00
21555;BME280;10938;44.794;-0.676;2022-12-07T12:27:25;101061.44;;;9.83;100.00
21555;BME280;10938;44.794;-0.676;2022-12-07T12:29:58;101053.53;;;10.19;100.00
21555;BME280;10938;44.794;-0.676;2022-12-07T12:32:43;101048.69;;;10.39;100.00
21555;BME280;10938;44.794;-0.676;2022-12-07T12:37:55;101048.69;;;10.39;100.00
21555;BME280;10938;44.794;-0.676;2022-12-07T12:42:54;101045.44;;;10.07;100.00
21555;BME280;10938;44.794;-0.676;2022-12-07T12:45:26;101036.03;;;10.13;100.00
21555;BME280;10938;44.794;-0.676;2022-12-07T12:53:04;101025.88;;;9.85;100.00
21555;BME280;10938;44.794;-0.676;2022-12-07T13:01:30;101026.72;;;9.44;100.00
21555;BME280;10938;44.794;-0.676;2022-12-07T13:03:38;101021.59;;;9.47;100.00
21555;BME280;10938;44.794;-0.676;2022-12-07T13:06:35;101009.72;;;9.61;100.00
21555;BME280;10938;44.794;-0.676;2022-12-07T13:09:15;101013.22;;;9.60;100.00
21555;BME280;10938;44.794;-0.676;2022-12-07T13:11:44;100997.56;;;10.02;100.00
21555;BME280;10938;44.794;-0.676;2022-12-07T13:20:06;100992.41;;;10.03;100.00
21555;BME280;10938;44.794;-0.676;2022-12-07T13:25:12;100976.91;;;10.56;100.00
21555;BME280;10938;44.794;-0.676;2022-12-07T13:27:51;100981.09;;;10.46;100.00
21555;BME280;10938;44.794;-0.676;2022-12-07T13:30:22;100971.69;;;10.56;100.00
21555;BME280;10938;44.794;-0.676;2022-12-07T13:32:57;100978.13;;;10.77;100.00
21555;BME280;10938;44.794;-0.676;2022-12-07T13:37:54;100961.56;;;10.24;100.00
21555;BME280;10938;44.794;-0.676;2022-12-07T13:40:21;100950.66;;;10.45;100.00
21555;BME280;10938;44.794;-0.676;2022-12-07T13:43:00;100951.56;;;10.49;100.00
21555;BME280;10938;44.794;-0.676;2022-12-07T13:45:33;100945.53;;;10.05;100.00
21555;BME280;10938;44.794;-0.676;2022-12-07T13:48:41;100932.78;;;10.17;100.00
21555;BME280;10938;44.794;-0.676;2022-12-07T13:51:26;100918.56;;;10.01;100.00
21555;BME280;10938;44.794;-0.676;2022-12-07T13:54:00;100922.38;;;10.17;100.00
21555;BME280;10938;44.794;-0.676;2022-12-07T13:56:34;100922.81;;;9.96;100.00
21555;BME280;10938;44.794;-0.676;2022-12-07T13:59:23;100924.38;;;9.88;100.00
21555;BME280;10938;44.794;-0.676;2022-12-07T14:01:55;100913.41;;;10.04;100.00
21555;BME280;10938;44.794;-0.676;2022-12-07T14:04:42;100913.78;;;10.22;100.00
21555;BME280;10938;44.794;-0.676;2022-12-07T14:07:54;100915.78;;;9.91;100.00
21555;BME280;10938;44.794;-0.676;2022-12-07T14:10:31;100904.53;;;9.95;100.00
21555;BME280;10938;44.794;-0.676;2022-12-07T14:13:01;100909.06;;;10.03;100.00
21555;BME280;10938;44.794;-0.676;2022-12-07T14:15:33;100906.75;;;10.18;100.00
21555;BME280;10938;44.794;-0.676;2022-12-07T14:18:02;100899.84;;;10.20;100.00
21555;BME280;10938;44.794;-0.676;2022-12-07T14:20:39;100898.19;;;10.24;100.00
21555;BME280;10938;44.794;-0.676;2022-12-07T14:23:28;100895.97;;;10.00;100.00
21555;BME280;10938;44.794;-0.676;2022-12-07T14:25:54;100902.81;;;9.95;100.00
21555;BME280;10938;44.794;-0.676;2022-12-07T14:28:30;100896.19;;;10.12;100.00
21555;BME280;10938;44.794;-0.676;2022-12-07T14:31:00;100896.53;;;9.84;100.00
21555;BME280;10938;44.794;-0.676;2022-12-07T14:33:26;100893.25;;;9.94;100.00
21555;BME280;10938;44.794;-0.676;2022-12-07T14:36:00;100896.03;;;10.03;100.00
21555;BME280;10938;44.794;-0.676;2022-12-07T14:38:27;100895.06;;;9.97;100.00
21555;BME280;10938;44.794;-0.676;2022-12-07T14:40:56;100894.38;;;10.08;100.00
21555;BME280;10938;44.794;-0.676;2022-12-07T14:43:45;100899.53;;;10.05;100.00
21555;BME280;10938;44.794;-0.676;2022-12-07T14:46:11;100896.09;;;10.06;100.00
21555;BME280;10938;44.794;-0.676;2022-12-07T14:48:37;100894.38;;;10.07;100.00
21555;BME280;10938;44.794;-0.676;2022-12-07T14:51:03;100885.66;;;10.06;100.00
21555;BME280;10938;44.794;-0.676;2022-12-07T14:53:37;100884.00;;;10.10;100.00
21555;BME280;10938;44.794;-0.676;2022-12-07T14:56:09;100879.47;;;10.00;100.00
21555;BME280;10938;44.794;-0.676;2022-12-07T14:58:35;100875.94;;;9.96;100.00
21555;BME280;10938;44.794;-0.676;2022-12-07T15:01:00;100873.97;;;9.83;100.00
21555;BME280;10938;44.794;-0.676;2022-12-07T15:03:26;100879.53;;;10.04;100.00
21555;BME280;10938;44.794;-0.676;2022-12-07T15:05:55;100883.31;;;10.18;100.00
21555;BME280;10938;44.794;-0.676;2022-12-07T15:08:26;100885.03;;;10.18;100.00
21555;BME280;10938;44.794;-0.676;2022-12-07T15:10:59;100873.72;;;10.16;100.00
21555;BME280;10938;44.794;-0.676;2022-12-07T15:13:30;100874.47;;;10.12;100.00
21555;BME280;10938;44.794;-0.676;2022-12-07T15:16:19;100878.94;;;10.17;100.00
21555;BME280;10938;44.794;-0.676;2022-12-07T15:18:49;100873.72;;;10.17;100.00